createdAt,value
2019-04-14T00:00:11.917Z,53.23
2019-04-14T00:02:51.194Z,56.30
2019-04-14T00:05:23.275Z,52.27
2019-04-14T00:07:53.833Z,56.40
2019-04-14T00:10:25.233Z,52.47
2019-04-14T00:12:55.640Z,51.47
2019-04-14T00:15:33.266Z,53.20
2019-04-14T00:17:58.945Z,54.20
2019-04-14T00:20:29.383Z,58.87
2019-04-14T00:22:59.769Z,56.23
2019-04-14T00:25:30.513Z,69.43
2019-04-14T00:28:02.938Z,71.00
2019-04-14T00:30:33.765Z,69.93
2019-04-14T00:33:06.266Z,82.23
2019-04-14T00:35:44.860Z,72.87
2019-04-14T00:38:28.092Z,83.73
2019-04-14T00:41:00.698Z,90.07
2019-04-14T00:43:41.721Z,89.80
2019-04-14T00:46:23.283Z,62.07
2019-04-14T00:48:54.540Z,54.63
2019-04-14T00:51:24.649Z,52.90
2019-04-14T00:53:55.667Z,64.00
2019-04-14T00:56:25.994Z,58.97
2019-04-14T00:58:56.159Z,72.97
2019-04-14T01:01:26.523Z,57.67
2019-04-14T01:03:56.983Z,61.20
2019-04-14T01:06:27.335Z,59.90
2019-04-14T01:08:57.569Z,70.63
2019-04-14T01:11:29.115Z,62.53
2019-04-14T01:13:59.430Z,66.63
2019-04-14T01:16:29.788Z,68.60
2019-04-14T01:19:00.443Z,66.20
2019-04-14T01:21:32.718Z,58.37
2019-04-14T01:24:03.192Z,53.77
2019-04-14T01:26:33.488Z,51.80
2019-04-14T01:29:03.707Z,58.47
2019-04-14T01:31:33.922Z,68.17
2019-04-14T01:34:04.151Z,86.93
2019-04-14T01:36:34.498Z,80.90
2019-04-14T01:39:06.953Z,73.40
2019-04-14T01:41:37.460Z,79.80
2019-04-14T01:44:07.439Z,77.70
2019-04-14T01:46:37.510Z,58.50
2019-04-14T01:49:07.490Z,54.40
2019-04-14T01:51:46.346Z,55.87
2019-04-14T01:54:19.026Z,53.40
2019-04-14T01:57:00.864Z,56.67
2019-04-14T01:59:30.851Z,54.97
2019-04-14T02:02:01.604Z,58.37
2019-04-14T02:04:31.695Z,55.13
2019-04-14T02:07:03.829Z,53.93
2019-04-14T02:09:33.987Z,61.50
2019-04-14T02:12:06.235Z,67.87
2019-04-14T02:14:36.526Z,60.77
2019-04-14T02:17:07.839Z,53.30
2019-04-14T02:19:39.288Z,62.23
2019-04-14T02:22:09.626Z,56.00
2019-04-14T02:24:39.623Z,56.03
2019-04-14T02:27:23.142Z,58.70
2019-04-14T02:29:53.837Z,54.97
2019-04-14T02:32:52.568Z,58.67
2019-04-14T02:35:40.726Z,59.27
2019-04-14T02:38:02.007Z,63.00
2019-04-14T02:40:27.376Z,59.30
2019-04-14T02:42:54.180Z,63.80
2019-04-14T02:45:35.088Z,59.97
2019-04-14T02:50:30.317Z,61.20
2019-04-14T02:53:09.047Z,60.00
2019-04-14T02:55:42.496Z,59.27
2019-04-14T02:58:09.975Z,60.97
2019-04-14T03:03:23.421Z,62.00
2019-04-14T03:05:53.372Z,64.10
2019-04-14T03:15:56.804Z,53.03
2019-04-14T03:21:19.988Z,57.83
2019-04-14T03:23:56.367Z,54.63
2019-04-14T03:26:45.067Z,53.80
2019-04-14T03:29:19.215Z,53.43
2019-04-14T03:37:31.106Z,57.50
2019-04-14T03:39:27.372Z,52.27
2019-04-14T03:41:53.100Z,53.37
2019-04-14T03:44:32.991Z,53.20
2019-04-14T03:47:08.689Z,53.60
2019-04-14T03:49:31.760Z,57.03
2019-04-14T03:52:03.705Z,54.50
2019-04-14T03:54:27.353Z,53.90
2019-04-14T03:56:48.964Z,57.50
2019-04-14T03:59:21.668Z,62.13
2019-04-14T04:01:52.402Z,60.53
2019-04-14T04:04:22.800Z,60.20
2019-04-14T04:06:53.197Z,60.43
2019-04-14T04:09:25.713Z,60.43
2019-04-14T04:11:56.336Z,66.87
2019-04-14T04:14:27.623Z,59.40
2019-04-14T04:17:01.465Z,67.43
2019-04-14T04:19:38.923Z,64.23
2019-04-14T04:22:17.194Z,69.77
2019-04-14T04:24:52.189Z,72.20
2019-04-14T04:27:41.909Z,73.77
2019-04-14T04:30:14.424Z,73.60
2019-04-14T04:32:52.146Z,73.67
2019-04-14T04:35:32.775Z,78.33
2019-04-14T04:38:08.139Z,74.47
2019-04-14T04:40:39.631Z,78.43
2019-04-14T04:43:10.173Z,80.40
2019-04-14T04:45:40.893Z,78.50
2019-04-14T04:48:11.036Z,80.17
2019-04-14T04:50:45.245Z,82.40
2019-04-14T04:53:15.839Z,74.90
2019-04-14T04:55:46.156Z,81.27
2019-04-14T04:58:19.423Z,77.57
2019-04-14T05:00:52.554Z,74.60
2019-04-14T05:03:21.368Z,75.77
2019-04-14T05:06:11.324Z,76.30
2019-04-14T05:08:55.408Z,71.47
2019-04-14T05:11:27.369Z,74.43
2019-04-14T05:14:00.015Z,74.00
2019-04-14T05:16:30.281Z,69.57
2019-04-14T05:19:12.196Z,67.93
2019-04-14T05:21:32.168Z,72.07
2019-04-14T05:24:02.836Z,69.07
2019-04-14T05:26:33.156Z,72.33
2019-04-14T05:29:03.595Z,72.33
2019-04-14T05:31:33.832Z,70.57
2019-04-14T05:34:04.407Z,70.37
2019-04-14T05:36:36.736Z,69.13
2019-04-14T05:39:07.200Z,69.33
2019-04-14T05:41:37.618Z,78.00
2019-04-14T05:44:09.910Z,66.53
2019-04-14T05:46:43.111Z,65.43
2019-04-14T05:49:26.276Z,73.50
2019-04-14T05:51:57.019Z,69.77
2019-04-14T05:54:27.486Z,65.33
2019-04-14T05:56:58.001Z,66.37
2019-04-14T05:59:28.604Z,59.23
2019-04-14T06:01:59.431Z,64.90
2019-04-14T06:04:30.934Z,63.40
2019-04-14T06:07:02.330Z,60.43
2019-04-14T06:09:32.436Z,70.30
2019-04-14T06:12:02.612Z,64.33
2019-04-14T06:14:32.653Z,63.47
2019-04-14T06:17:03.798Z,64.00
2019-04-14T06:19:39.040Z,66.90
2019-04-14T06:22:05.698Z,62.50
2019-04-14T06:24:35.686Z,64.33
2019-04-14T06:27:05.751Z,61.23
2019-04-14T06:29:35.728Z,62.97
2019-04-14T06:32:07.601Z,63.90
2019-04-14T06:34:51.154Z,64.57
2019-04-14T06:37:22.801Z,66.37
2019-04-14T06:40:00.404Z,61.13
2019-04-14T06:42:30.724Z,57.53
2019-04-14T06:45:00.867Z,62.83
2019-04-14T06:47:30.947Z,62.70
2019-04-14T06:50:00.915Z,64.30
2019-04-14T06:52:32.195Z,64.47
2019-04-14T06:55:02.145Z,62.10
2019-04-14T06:57:33.482Z,69.33
2019-04-14T07:00:03.854Z,68.43
2019-04-14T07:02:35.234Z,65.47
2019-04-14T07:05:06.612Z,59.70
2019-04-14T07:07:37.825Z,70.40
2019-04-14T07:10:09.143Z,67.23
2019-04-14T07:12:39.433Z,63.27
2019-04-14T07:15:09.521Z,60.87
2019-04-14T07:17:41.794Z,63.57
2019-04-14T07:20:12.253Z,64.33
2019-04-14T07:22:54.906Z,64.03
2019-04-14T07:25:24.953Z,63.37
2019-04-14T07:27:55.118Z,66.53
2019-04-14T07:30:42.954Z,62.47
2019-04-14T07:33:14.711Z,60.17
2019-04-14T07:35:46.332Z,63.70
2019-04-14T07:38:21.779Z,68.97
2019-04-14T07:41:05.727Z,65.37
2019-04-14T07:43:46.235Z,65.03
2019-04-14T07:46:23.700Z,69.97
2019-04-14T07:49:12.090Z,63.87
2019-04-14T07:51:55.826Z,64.13
2019-04-14T07:54:43.464Z,64.40
2019-04-14T07:57:33.515Z,58.03
2019-04-14T08:00:06.767Z,64.90
2019-04-14T08:02:41.629Z,61.67
2019-04-14T08:05:13.472Z,61.17
2019-04-14T08:07:44.695Z,59.97
2019-04-14T08:10:14.932Z,66.20
2019-04-14T08:12:44.901Z,61.20
2019-04-14T08:15:15.430Z,69.77
2019-04-14T08:17:46.494Z,59.97
2019-04-14T08:20:26.838Z,58.87
2019-04-14T08:22:48.587Z,55.67
2019-04-14T08:25:18.703Z,49.50
2019-04-14T08:27:48.772Z,54.83
2019-04-14T08:30:19.183Z,57.87
2019-04-14T08:32:49.344Z,56.17
2019-04-14T08:35:19.611Z,60.27
2019-04-14T08:37:50.878Z,60.80
2019-04-14T08:40:20.969Z,57.47
2019-04-14T08:42:58.721Z,63.13
2019-04-14T08:45:45.990Z,70.77
2019-04-14T08:48:24.683Z,69.47
2019-04-14T08:50:59.659Z,67.80
2019-04-14T08:53:31.311Z,68.90
2019-04-14T08:56:09.262Z,68.93
2019-04-14T08:58:50.698Z,64.87
2019-04-14T09:01:28.063Z,59.63
2019-04-14T09:03:59.784Z,68.13
2019-04-14T09:06:31.443Z,56.87
2019-04-14T09:09:09.058Z,60.47
2019-04-14T09:11:52.860Z,58.50
2019-04-14T09:14:22.842Z,56.00
2019-04-14T09:16:54.207Z,56.80
2019-04-14T09:19:24.516Z,58.93
2019-04-14T09:21:54.736Z,59.30
2019-04-14T09:24:24.967Z,58.43
2019-04-14T09:26:56.295Z,58.77
2019-04-14T09:29:27.143Z,59.30
2019-04-14T09:31:57.351Z,57.47
2019-04-14T09:34:27.494Z,58.30
2019-04-14T09:36:58.740Z,61.23
2019-04-14T09:39:28.819Z,65.17
2019-04-14T09:41:58.961Z,62.07
2019-04-14T09:44:29.159Z,58.00
2019-04-14T09:46:59.448Z,69.03
2019-04-14T09:49:29.637Z,62.03
2019-04-14T09:51:59.720Z,57.43
2019-04-14T09:54:29.669Z,58.67
2019-04-14T09:57:00.891Z,64.93
2019-04-14T09:59:30.893Z,62.23
2019-04-14T10:02:01.250Z,63.70
2019-04-14T10:04:31.447Z,62.33
2019-04-14T10:07:02.743Z,53.23
2019-04-14T10:09:32.924Z,61.27
2019-04-14T10:12:03.106Z,52.33
2019-04-14T10:14:33.260Z,53.03
2019-04-14T10:17:04.451Z,55.20
2019-04-14T10:19:35.432Z,57.93
2019-04-14T10:22:05.604Z,55.90
2019-04-14T10:24:35.597Z,54.13
2019-04-14T10:27:05.758Z,62.60
2019-04-14T10:29:35.719Z,59.07
2019-04-14T10:32:06.101Z,51.37
2019-04-14T10:34:36.193Z,62.10
2019-04-14T10:37:06.382Z,76.83
2019-04-14T10:39:36.540Z,55.73
2019-04-14T10:42:06.835Z,59.07
2019-04-14T10:44:36.893Z,62.27
2019-04-14T10:47:07.053Z,60.17
2019-04-14T10:49:37.116Z,57.23
2019-04-14T10:52:07.314Z,55.47
2019-04-14T10:54:38.688Z,58.40
2019-04-14T10:57:10.794Z,63.23
2019-04-14T10:59:51.614Z,55.10
2019-04-14T11:02:23.360Z,53.50
2019-04-14T11:04:56.313Z,60.97
2019-04-14T11:07:30.713Z,59.87
2019-04-14T11:10:00.999Z,56.77
2019-04-14T11:12:34.562Z,54.30
2019-04-14T11:15:07.070Z,58.13
2019-04-14T11:17:39.821Z,51.13
2019-04-14T11:20:11.123Z,52.53
2019-04-14T11:22:41.317Z,60.37
2019-04-14T11:25:11.486Z,54.03
2019-04-14T11:27:41.610Z,53.10
2019-04-14T11:30:13.326Z,51.97
2019-04-14T11:32:47.803Z,53.60
2019-04-14T11:35:22.198Z,54.60
2019-04-14T11:38:10.186Z,55.07
2019-04-14T11:40:41.732Z,54.50
2019-04-14T11:43:11.930Z,56.63
2019-04-14T11:45:41.892Z,56.07
2019-04-14T11:48:12.154Z,55.63
2019-04-14T11:50:42.352Z,54.07
2019-04-14T11:53:12.627Z,54.97
2019-04-14T11:55:42.750Z,55.63
2019-04-14T11:58:13.035Z,56.67
2019-04-14T12:00:54.059Z,52.43
2019-04-14T12:03:38.965Z,58.20
2019-04-14T12:06:19.470Z,48.37
2019-04-14T12:08:51.222Z,54.27
2019-04-14T12:11:21.409Z,52.13
2019-04-14T12:13:51.497Z,53.60
2019-04-14T12:16:21.556Z,49.83
2019-04-14T12:18:51.712Z,49.30
2019-04-14T12:21:22.684Z,47.57
2019-04-14T12:23:53.052Z,50.13
2019-04-14T12:26:23.042Z,49.73
2019-04-14T12:28:53.697Z,48.90
2019-04-14T12:31:24.400Z,50.80
2019-04-14T12:33:54.606Z,50.17
2019-04-14T12:36:24.756Z,50.90
2019-04-14T12:38:55.054Z,52.90
2019-04-14T12:41:31.049Z,48.80
2019-04-14T12:44:09.007Z,51.70
2019-04-14T12:46:46.561Z,53.40
2019-04-14T12:49:25.255Z,52.27
2019-04-14T12:52:21.394Z,51.60
2019-04-14T12:54:48.489Z,49.23
2019-04-14T12:57:21.186Z,53.73
2019-04-14T12:59:51.669Z,57.20
2019-04-14T13:02:23.432Z,53.63
2019-04-14T13:04:55.348Z,48.57
2019-04-14T13:07:44.778Z,55.87
2019-04-14T13:10:15.370Z,52.33
2019-04-14T13:12:45.467Z,56.80
2019-04-14T13:15:27.442Z,55.43
2019-04-14T13:17:57.476Z,56.10
2019-04-14T13:20:27.744Z,58.47
2019-04-14T13:22:58.923Z,58.13
2019-04-14T13:25:29.109Z,55.53
2019-04-14T13:27:59.087Z,55.47
2019-04-14T13:30:30.926Z,53.90
2019-04-14T13:33:00.953Z,49.23
2019-04-14T13:35:50.429Z,53.27
2019-04-14T13:38:20.546Z,50.13
2019-04-14T13:40:50.991Z,48.60
2019-04-14T13:43:21.085Z,58.30
2019-04-14T13:45:51.367Z,50.93
2019-04-14T13:48:33.895Z,50.33
2019-04-14T13:51:16.395Z,50.63
2019-04-14T13:54:05.820Z,59.37
2019-04-14T13:56:37.673Z,51.42
2019-04-14T13:59:07.683Z,52.57
2019-04-14T14:01:37.979Z,53.23
2019-04-14T14:04:08.046Z,50.03
2019-04-14T14:06:38.442Z,49.43
2019-04-14T14:09:10.783Z,50.07
2019-04-14T14:11:45.002Z,49.10
2019-04-14T14:14:19.717Z,48.50
2019-04-14T14:16:59.653Z,49.43
2019-04-14T14:19:43.280Z,54.13
2019-04-14T14:22:15.201Z,48.77
2019-04-14T14:24:56.171Z,48.97
2019-04-14T14:27:26.294Z,49.80
2019-04-14T14:29:56.375Z,54.13
2019-04-14T14:32:30.975Z,48.17
2019-04-14T14:35:00.938Z,52.27
2019-04-14T14:37:31.119Z,51.23
2019-04-14T14:40:01.084Z,46.83
2019-04-14T14:42:32.421Z,45.90
2019-04-14T14:45:17.542Z,43.00
2019-04-14T14:47:54.004Z,44.47
2019-04-14T14:50:25.763Z,53.30
2019-04-14T14:52:55.975Z,48.93
2019-04-14T14:55:25.959Z,51.73
2019-04-14T14:57:56.691Z,49.60
2019-04-14T15:00:31.268Z,49.73
2019-04-14T15:03:01.327Z,49.23
2019-04-14T15:05:31.313Z,46.73
2019-04-14T15:08:01.417Z,47.30
2019-04-14T15:10:31.499Z,50.80
2019-04-14T15:13:02.765Z,48.23
2019-04-14T15:15:32.832Z,49.00
2019-04-14T15:18:03.017Z,50.07
2019-04-14T15:20:33.208Z,54.43
2019-04-14T15:23:03.454Z,51.70
2019-04-14T15:25:34.577Z,48.93
2019-04-14T15:28:06.427Z,50.58
2019-04-14T15:30:37.815Z,48.77
2019-04-14T15:33:08.559Z,51.15
2019-04-14T15:35:38.666Z,50.97
2019-04-14T15:38:08.855Z,48.70
2019-04-14T15:40:38.907Z,50.07
2019-04-14T15:43:08.995Z,50.03
2019-04-14T15:45:38.948Z,51.10
2019-04-14T15:48:09.040Z,49.23
2019-04-14T15:50:39.228Z,50.70
2019-04-14T15:53:09.553Z,48.33
2019-04-14T15:55:39.516Z,51.43
2019-04-14T15:58:12.848Z,52.00
2019-04-14T16:00:44.965Z,46.80
2019-04-14T16:03:22.676Z,50.63
2019-04-14T16:05:54.325Z,47.53
2019-04-14T16:08:42.461Z,54.60
2019-04-14T16:11:13.995Z,47.62
2019-04-14T16:13:45.675Z,48.37
2019-04-14T16:16:17.403Z,48.30
2019-04-14T16:18:49.222Z,46.17
2019-04-14T16:21:19.330Z,57.83
2019-04-14T16:23:50.890Z,50.13
2019-04-14T16:26:23.908Z,43.50
2019-04-14T16:29:02.671Z,45.43
2019-04-14T16:31:52.978Z,45.73
2019-04-14T16:34:27.636Z,44.15
2019-04-14T16:37:03.775Z,48.63
2019-04-14T16:39:33.999Z,45.97
2019-04-14T16:42:04.140Z,44.03
2019-04-14T16:44:34.427Z,52.30
2019-04-14T16:47:05.586Z,49.33
2019-04-14T16:49:35.762Z,47.30
2019-04-14T16:52:10.680Z,50.33
2019-04-14T16:54:51.223Z,43.20
2019-04-14T16:57:31.891Z,48.17
2019-04-14T17:00:01.962Z,47.23
2019-04-14T17:02:33.226Z,46.87
2019-04-14T17:05:03.382Z,50.47
2019-04-14T17:07:34.377Z,58.00
2019-04-14T17:10:05.151Z,56.03
2019-04-14T17:12:35.827Z,49.80
2019-04-14T17:15:25.445Z,48.60
2019-04-14T17:18:10.121Z,44.27
2019-04-14T17:20:44.698Z,47.60
2019-04-14T17:23:16.216Z,41.93
2019-04-14T17:25:47.865Z,43.07
2019-04-14T17:28:39.250Z,43.20
2019-04-14T17:31:17.206Z,44.00
2019-04-14T17:33:48.863Z,38.20
2019-04-14T17:36:29.976Z,39.93
2019-04-14T17:39:01.630Z,37.90
2019-04-14T17:41:41.083Z,41.27
2019-04-14T17:44:25.017Z,50.23
2019-04-14T17:47:13.415Z,37.50
2019-04-14T17:49:44.945Z,37.13
2019-04-14T17:52:19.377Z,40.87
2019-04-14T17:54:56.832Z,36.27
2019-04-14T17:57:34.743Z,37.10
2019-04-14T18:00:17.494Z,35.23
2019-04-14T18:02:58.523Z,34.57
2019-04-14T18:05:36.299Z,37.37
2019-04-14T18:08:17.186Z,35.60
2019-04-14T18:11:07.359Z,35.40
2019-04-14T18:13:42.181Z,35.27
2019-04-14T18:16:19.679Z,36.97
2019-04-14T18:19:01.289Z,35.67
2019-04-14T18:21:31.274Z,36.20
2019-04-14T18:24:01.348Z,34.83
2019-04-14T18:26:31.779Z,37.83
2019-04-14T18:29:20.677Z,36.50
2019-04-14T18:31:52.354Z,37.97
2019-04-14T18:34:25.575Z,35.10
2019-04-14T18:36:57.759Z,37.40
2019-04-14T18:39:45.983Z,38.43
2019-04-14T18:42:20.477Z,35.07
2019-04-14T18:44:53.308Z,40.37
2019-04-14T18:47:35.351Z,38.93
2019-04-14T18:50:11.210Z,33.00
2019-04-14T18:52:43.373Z,37.60
2019-04-14T18:55:17.962Z,35.50
2019-04-14T18:57:49.890Z,34.70
2019-04-14T19:00:21.558Z,34.13
2019-04-14T19:02:52.282Z,33.07
2019-04-14T19:05:23.004Z,32.93
2019-04-14T19:07:53.281Z,31.30
2019-04-14T19:10:24.392Z,33.80
2019-04-14T19:12:59.301Z,31.70
2019-04-14T19:15:43.932Z,30.47
2019-04-14T19:18:29.952Z,35.43
2019-04-14T19:21:05.704Z,32.43
2019-04-14T19:23:36.225Z,34.47
2019-04-14T19:26:06.429Z,33.50
2019-04-14T19:28:36.802Z,32.87
2019-04-14T19:31:07.207Z,32.33
2019-04-14T19:33:37.396Z,33.40
2019-04-14T19:36:07.733Z,31.40
2019-04-14T19:38:38.947Z,57.43
2019-04-14T19:41:25.707Z,35.97
2019-04-14T19:44:00.666Z,37.83
2019-04-14T19:46:40.667Z,30.33
2019-04-14T19:49:19.202Z,31.80
2019-04-14T19:51:52.721Z,33.73
2019-04-14T19:54:27.843Z,34.03
2019-04-14T19:56:58.143Z,32.10
2019-04-14T19:59:29.314Z,33.07
2019-04-14T20:01:59.622Z,30.17
2019-04-14T20:04:30.093Z,30.33
2019-04-14T20:07:20.656Z,30.37
2019-04-14T20:09:50.900Z,32.33
2019-04-14T20:12:21.304Z,31.03
2019-04-14T20:14:51.593Z,34.60
2019-04-14T20:17:23.473Z,30.13
2019-04-14T20:20:11.477Z,27.67
2019-04-14T20:22:52.235Z,28.67
2019-04-14T20:25:33.727Z,31.13
2019-04-14T20:28:09.118Z,30.47
2019-04-14T20:30:41.059Z,29.10
2019-04-14T20:33:13.939Z,29.37
2019-04-14T20:35:44.119Z,28.33
2019-04-14T20:38:14.308Z,31.57
2019-04-14T20:40:44.621Z,29.93
2019-04-14T20:43:14.901Z,29.70
2019-04-14T20:45:45.264Z,30.83
2019-04-14T20:48:15.447Z,29.57
2019-04-14T20:50:45.640Z,30.37
2019-04-14T20:53:15.823Z,30.77
2019-04-14T20:55:47.248Z,31.43
2019-04-14T20:58:17.698Z,32.93
2019-04-14T21:00:47.945Z,34.40
2019-04-14T21:03:19.588Z,37.07
2019-04-14T21:05:53.722Z,34.67
2019-04-14T21:08:25.267Z,35.70
2019-04-14T21:10:56.935Z,37.67
2019-04-14T21:13:28.465Z,35.30
2019-04-14T21:16:12.559Z,37.07
2019-04-14T21:18:45.105Z,41.40
2019-04-14T21:21:29.301Z,39.77
2019-04-14T21:24:00.981Z,32.80
2019-04-14T21:26:38.806Z,33.40
2019-04-14T21:29:10.432Z,36.43
2019-04-14T21:31:51.180Z,102.27
2019-04-14T21:34:22.733Z,57.83
2019-04-14T21:36:55.616Z,47.40
2019-04-14T21:39:40.586Z,40.73
2019-04-14T21:42:11.011Z,36.87
2019-04-14T21:44:41.195Z,32.60
2019-04-14T21:47:14.750Z,36.87
2019-04-14T21:49:44.739Z,34.00
2019-04-14T21:52:20.722Z,32.03
2019-04-14T21:54:50.784Z,33.47
2019-04-14T21:57:34.533Z,31.43
2019-04-14T22:00:27.004Z,32.90
2019-04-14T22:03:18.065Z,34.13
2019-04-14T22:05:49.742Z,31.03
2019-04-14T22:08:21.478Z,34.77
2019-04-14T22:10:56.071Z,32.90
2019-04-14T22:13:26.168Z,36.17
2019-04-14T22:15:57.393Z,31.13
2019-04-14T22:18:27.531Z,32.60
2019-04-14T22:20:57.618Z,30.40
2019-04-14T22:23:27.802Z,30.53
2019-04-14T22:25:57.769Z,31.33
2019-04-14T22:28:27.847Z,29.57
2019-04-14T22:30:57.999Z,35.53
2019-04-14T22:33:28.186Z,37.90
2019-04-14T22:35:58.245Z,31.17
2019-04-14T22:38:28.480Z,30.03
2019-04-14T22:40:58.681Z,30.43
2019-04-14T22:43:28.949Z,30.37
2019-04-14T22:45:58.936Z,30.60
2019-04-14T22:48:29.100Z,27.83
2019-04-14T22:50:59.164Z,29.63
2019-04-14T22:53:29.346Z,27.67
2019-04-14T22:55:59.331Z,27.70
2019-04-14T22:58:29.516Z,29.57
2019-04-14T23:01:02.482Z,28.63
2019-04-14T23:03:34.780Z,28.93
2019-04-14T23:09:11.822Z,28.20
2019-04-14T23:11:59.898Z,29.17
2019-04-14T23:14:34.657Z,27.73
2019-04-14T23:17:22.835Z,27.23
2019-04-14T23:20:00.633Z,28.67
2019-04-14T23:22:33.380Z,29.07
2019-04-14T23:25:03.647Z,29.07
2019-04-14T23:27:37.653Z,26.47
2019-04-14T23:30:08.367Z,28.70
2019-04-14T23:32:38.356Z,25.97
2019-04-14T23:35:09.700Z,29.23
2019-04-14T23:37:43.224Z,28.60
2019-04-14T23:40:13.599Z,30.70
2019-04-14T23:42:43.547Z,26.60
2019-04-14T23:45:13.982Z,31.40
2019-04-14T23:47:46.148Z,30.10
2019-04-14T23:50:16.539Z,28.27
2019-04-14T23:52:46.533Z,30.80
2019-04-14T23:55:16.644Z,28.20
2019-04-14T23:57:49.858Z,28.67
